Aérodrome :
LOGIN :

S'inscrire | Disclaimer

   EN    FR    IT 

 










Légende :    VFR   VFR Marginal   IFR   IFR Intensif   IFR Très Intensif
Visi : 
Plafond : 
>= 8 km
>= 3000ft
5 à 8 km
1000 à 3000 ft
1500m à 5 km
500 à 1000 ft
800 à 1500m
200 à 500 ft
< 800m
< 200 ft
Symboles :   Orages  Brouillard  Fortes neiges  Fortes précipitations  Vent > 20 kt
SIGMETs :   Divers  Orages  Givrage  Turbulence  Onde Orograph.  Cendres Volcan.






- Altitude de l'aérodrome : 313 ft
- Code IATA : LEH


LFOH - Le Havre Octeville

DERNIER METAR :
  • 122030Z AUTO 24016KT 9999 FEW016 SCT022 BKN033 09/08 Q0982

METARs EXPIRÉS :
  • 122000Z AUTO 24017KT 9999 FEW017 SCT024 09/08 Q0983
  • 121930Z AUTO 25018KT 9999 FEW017 SCT024 BKN043 09/08 Q0984
  • 121900Z AUTO 25016KT 9999 SCT014/// BKN022/// BKN027/// ///TCU 09/08 Q0984 TEMPO 3000 SHRA BKN008 BKN020CB BECMG 25020G30KT
  • 121830Z AUTO 25017KT 9999 BKN022 OVC027 09/08 Q0984 TEMPO 3000 SHRA BKN008 BKN020CB BECMG 25020G30KT
  • 121800Z AUTO 25018KT 9999 FEW011/// BKN020/// BKN026/// ///TCU 09/08 Q0984 BECMG 24020G30KT OVC014

TAF AMD TAF LFOH
Valide du 12 à 18h jusqu'au 13 à 12h UTC


121808Z 1218/1312 25020G30KT 9999 BKN020
TEMPO 1218/1301 3000 SHRA BKN008 BKN020CB
PROB40 1221/1301 24025G40KT TSRA
FM130100 27020G35KT 9999 SCT030TCU
TEMPO 1301/1312 30030G50KT 3000 SHRA BKN030CB
PROB40 1301/1312 TSRA
ATIS : +33 2 35 54 64 93



MET'MAP, la Météo Aéronautique d'un coup d'oeil ! - Copyright ORBIFLY Décembre 2007 - Disclaimer

ORBIFLY MET'MAP TEAM :

Programmation & Développement : Alexandra Zaïnal
Sur une idée originale de : Baudouin d'Aumeries
Assistance à la programmation : Marc-Olivier Méhu
Soutien technique & logistique : Manuel Goepfert

Contact : metmap@orbifly.com




SOURCES & CREDITS :

   NOAA